sensor_id;sensor_type;location;lat;lon;timestamp;pressure;altitude;pressure_sealevel;temperature;humidity
20889;BME280;10604;51.976;7.594;2023-05-15T00:00:50;100602.50;;;17.36;67.20
20889;BME280;10604;51.976;7.594;2023-05-15T00:03:15;100591.84;;;17.36;67.48
20889;BME280;10604;51.976;7.594;2023-05-15T00:05:41;100597.66;;;17.42;67.16
20889;BME280;10604;51.976;7.594;2023-05-15T00:08:07;100600.16;;;17.59;66.61
20889;BME280;10604;51.976;7.594;2023-05-15T00:10:32;100597.91;;;17.68;68.02
20889;BME280;10604;51.976;7.594;2023-05-15T00:12:57;100594.03;;;17.43;67.58
20889;BME280;10604;51.976;7.594;2023-05-15T00:15:23;100590.50;;;17.29;68.04
20889;BME280;10604;51.976;7.594;2023-05-15T00:17:48;100595.38;;;17.36;67.83
20889;BME280;10604;51.976;7.594;2023-05-15T00:20:14;100593.25;;;17.27;67.57
20889;BME280;10604;51.976;7.594;2023-05-15T00:22:39;100579.34;;;17.22;68.13
20889;BME280;10604;51.976;7.594;2023-05-15T00:25:05;100581.59;;;17.14;68.75
20889;BME280;10604;51.976;7.594;2023-05-15T00:27:31;100586.81;;;17.01;68.65
20889;BME280;10604;51.976;7.594;2023-05-15T00:29:56;100576.72;;;17.06;68.79
20889;BME280;10604;51.976;7.594;2023-05-15T00:32:21;100574.00;;;17.22;68.20
20889;BME280;10604;51.976;7.594;2023-05-15T00:34:47;100579.31;;;17.08;68.79
20889;BME280;10604;51.976;7.594;2023-05-15T00:37:12;100574.06;;;17.06;68.99
20889;BME280;10604;51.976;7.594;2023-05-15T00:42:12;100584.59;;;16.94;68.80
20889;BME280;10604;51.976;7.594;2023-05-15T00:44:39;100587.03;;;16.82;69.49
20889;BME280;10604;51.976;7.594;2023-05-15T00:47:05;100586.31;;;16.95;69.00
20889;BME280;10604;51.976;7.594;2023-05-15T00:49:32;100585.94;;;17.01;69.16
20889;BME280;10604;51.976;7.594;2023-05-15T00:52:00;100583.47;;;16.98;69.40
20889;BME280;10604;51.976;7.594;2023-05-15T00:54:27;100575.31;;;16.85;69.75
20889;BME280;10604;51.976;7.594;2023-05-15T00:56:55;100574.31;;;16.88;69.46
20889;BME280;10604;51.976;7.594;2023-05-15T00:59:24;100569.75;;;16.90;69.53
20889;BME280;10604;51.976;7.594;2023-05-15T01:01:50;100570.28;;;16.80;69.40
20889;BME280;10604;51.976;7.594;2023-05-15T01:04:15;100574.84;;;16.78;69.35
20889;BME280;10604;51.976;7.594;2023-05-15T01:06:41;100562.66;;;16.74;70.17
20889;BME280;10604;51.976;7.594;2023-05-15T01:09:07;100552.00;;;16.74;69.74
20889;BME280;10604;51.976;7.594;2023-05-15T01:11:37;100556.03;;;16.81;69.27
20889;BME280;10604;51.976;7.594;2023-05-15T01:14:04;100552.94;;;16.73;69.95
20889;BME280;10604;51.976;7.594;2023-05-15T01:16:30;100559.03;;;16.75;69.41
20889;BME280;10604;51.976;7.594;2023-05-15T01:18:56;100559.56;;;16.66;69.52
20889;BME280;10604;51.976;7.594;2023-05-15T01:29:35;100543.22;;;16.72;70.52
20889;BME280;10604;51.976;7.594;2023-05-15T01:32:07;100555.06;;;16.82;70.12
20889;BME280;10604;51.976;7.594;2023-05-15T01:34:50;100547.47;;;16.61;69.66
20889;BME280;10604;51.976;7.594;2023-05-15T01:37:21;100546.75;;;16.57;70.01
20889;BME280;10604;51.976;7.594;2023-05-15T01:39:52;100548.03;;;16.50;70.29
20889;BME280;10604;51.976;7.594;2023-05-15T01:42:24;100555.44;;;16.45;70.09
20889;BME280;10604;51.976;7.594;2023-05-15T01:44:54;100557.19;;;16.46;70.40
20889;BME280;10604;51.976;7.594;2023-05-15T01:47:30;100549.19;;;16.46;70.23
20889;BME280;10604;51.976;7.594;2023-05-15T01:49:59;100543.44;;;16.38;70.40
20889;BME280;10604;51.976;7.594;2023-05-15T01:52:33;100536.31;;;16.23;70.92
20889;BME280;10604;51.976;7.594;2023-05-15T01:55:01;100536.03;;;16.43;70.13
20889;BME280;10604;51.976;7.594;2023-05-15T01:57:27;100539.13;;;16.35;70.00
20889;BME280;10604;51.976;7.594;2023-05-15T01:59:54;100543.88;;;16.30;70.28
20889;BME280;10604;51.976;7.594;2023-05-15T02:02:20;100540.84;;;16.21;70.12
20889;BME280;10604;51.976;7.594;2023-05-15T02:04:48;100541.38;;;16.27;70.48
20889;BME280;10604;51.976;7.594;2023-05-15T02:07:15;100531.06;;;16.21;70.17
20889;BME280;10604;51.976;7.594;2023-05-15T02:09:41;100533.84;;;16.20;70.06
20889;BME280;10604;51.976;7.594;2023-05-15T02:12:08;100533.66;;;16.23;70.26
20889;BME280;10604;51.976;7.594;2023-05-15T02:14:34;100534.44;;;16.25;69.99
20889;BME280;10604;51.976;7.594;2023-05-15T02:17:01;100535.03;;;16.30;69.56
20889;BME280;10604;51.976;7.594;2023-05-15T02:19:26;100530.22;;;16.21;69.74
20889;BME280;10604;51.976;7.594;2023-05-15T02:21:51;100532.28;;;16.16;69.54
20889;BME280;10604;51.976;7.594;2023-05-15T02:24:17;100525.09;;;16.18;69.67
20889;BME280;10604;51.976;7.594;2023-05-15T02:27:09;100539.50;;;16.14;69.93
20889;BME280;10604;51.976;7.594;2023-05-15T02:30:27;100529.53;;;16.01;69.68
20889;BME280;10604;51.976;7.594;2023-05-15T02:32:55;100526.63;;;15.90;70.06
20889;BME280;10604;51.976;7.594;2023-05-15T02:37:55;100530.38;;;15.86;70.35
20889;BME280;10604;51.976;7.594;2023-05-15T02:40:25;100532.44;;;15.81;69.84
20889;BME280;10604;51.976;7.594;2023-05-15T02:42:52;100526.97;;;15.84;70.45
20889;BME280;10604;51.976;7.594;2023-05-15T02:45:18;100527.47;;;15.75;70.00
20889;BME280;10604;51.976;7.594;2023-05-15T02:47:44;100537.63;;;15.84;70.23
20889;BME280;10604;51.976;7.594;2023-05-15T02:50:10;100532.59;;;15.78;70.00
20889;BME280;10604;51.976;7.594;2023-05-15T02:52:36;100529.78;;;15.81;70.24
20889;BME280;10604;51.976;7.594;2023-05-15T02:55:01;100531.44;;;15.84;69.95
20889;BME280;10604;51.976;7.594;2023-05-15T02:57:27;100525.59;;;15.77;70.01
20889;BME280;10604;51.976;7.594;2023-05-15T02:59:53;100533.28;;;15.66;70.37
20889;BME280;10604;51.976;7.594;2023-05-15T03:02:19;100524.53;;;15.64;70.54
20889;BME280;10604;51.976;7.594;2023-05-15T03:04:45;100529.63;;;15.51;70.26
20889;BME280;10604;51.976;7.594;2023-05-15T03:07:10;100527.59;;;15.56;70.26
20889;BME280;10604;51.976;7.594;2023-05-15T03:09:35;100525.84;;;15.40;70.65
20889;BME280;10604;51.976;7.594;2023-05-15T03:12:01;100514.69;;;15.49;70.18
20889;BME280;10604;51.976;7.594;2023-05-15T03:14:26;100520.50;;;15.40;70.34
20889;BME280;10604;51.976;7.594;2023-05-15T03:16:51;100518.78;;;15.39;70.32
20889;BME280;10604;51.976;7.594;2023-05-15T03:19:17;100525.63;;;15.27;70.74
20889;BME280;10604;51.976;7.594;2023-05-15T03:21:42;100520.66;;;15.37;70.72
20889;BME280;10604;51.976;7.594;2023-05-15T03:24:08;100517.56;;;15.28;70.11
20889;BME280;10604;51.976;7.594;2023-05-15T03:26:33;100516.38;;;15.34;70.02
20889;BME280;10604;51.976;7.594;2023-05-15T03:29:00;100517.56;;;15.28;69.61
20889;BME280;10604;51.976;7.594;2023-05-15T03:31:25;100522.72;;;15.32;70.11
20889;BME280;10604;51.976;7.594;2023-05-15T03:33:50;100526.47;;;15.27;69.97
20889;BME280;10604;51.976;7.594;2023-05-15T03:36:16;100521.00;;;15.31;70.15
20889;BME280;10604;51.976;7.594;2023-05-15T03:38:41;100518.53;;;15.60;70.74
20889;BME280;10604;51.976;7.594;2023-05-15T03:41:09;100528.47;;;15.57;69.96
20889;BME280;10604;51.976;7.594;2023-05-15T03:43:34;100532.00;;;15.40;71.09
20889;BME280;10604;51.976;7.594;2023-05-15T03:46:00;100519.81;;;15.36;71.71
20889;BME280;10604;51.976;7.594;2023-05-15T03:48:25;100521.91;;;15.47;71.20
20889;BME280;10604;51.976;7.594;2023-05-15T03:50:50;100526.78;;;15.56;70.81
20889;BME280;10604;51.976;7.594;2023-05-15T03:53:16;100520.59;;;15.38;71.70
20889;BME280;10604;51.976;7.594;2023-05-15T03:55:42;100524.25;;;15.53;71.86
20889;BME280;10604;51.976;7.594;2023-05-15T03:58:07;100522.47;;;15.53;73.44
20889;BME280;10604;51.976;7.594;2023-05-15T04:00:33;100517.50;;;15.63;73.20
20889;BME280;10604;51.976;7.594;2023-05-15T04:02:58;100514.25;;;15.74;72.43
20889;BME280;10604;51.976;7.594;2023-05-15T04:05:24;100529.19;;;15.76;72.49
20889;BME280;10604;51.976;7.594;2023-05-15T04:07:49;100528.94;;;15.96;72.59
20889;BME280;10604;51.976;7.594;2023-05-15T04:10:14;100525.06;;;15.86;71.22
20889;BME280;10604;51.976;7.594;2023-05-15T04:12:40;100526.38;;;15.95;71.87
20889;BME280;10604;51.976;7.594;2023-05-15T04:15:34;100528.00;;;15.97;72.82
20889;BME280;10604;51.976;7.594;2023-05-15T04:18:00;100520.78;;;15.99;72.87
20889;BME280;10604;51.976;7.594;2023-05-15T04:20:25;100529.72;;;15.98;72.83
20889;BME280;10604;51.976;7.594;2023-05-15T04:22:51;100526.81;;;16.03;73.21
20889;BME280;10604;51.976;7.594;2023-05-15T04:25:17;100528.50;;;16.35;72.75
20889;BME280;10604;51.976;7.594;2023-05-15T04:27:43;100530.47;;;16.48;72.10
20889;BME280;10604;51.976;7.594;2023-05-15T04:30:09;100521.97;;;16.41;72.36
20889;BME280;10604;51.976;7.594;2023-05-15T04:32:36;100527.47;;;16.38;72.62
20889;BME280;10604;51.976;7.594;2023-05-15T04:35:05;100531.06;;;16.68;72.25
20889;BME280;10604;51.976;7.594;2023-05-15T04:37:34;100532.94;;;16.66;72.74
20889;BME280;10604;51.976;7.594;2023-05-15T04:40:00;100522.50;;;16.77;71.83
20889;BME280;10604;51.976;7.594;2023-05-15T04:42:25;100514.72;;;16.74;71.92
20889;BME280;10604;51.976;7.594;2023-05-15T04:44:51;100509.00;;;16.80;72.44
20889;BME280;10604;51.976;7.594;2023-05-15T04:47:16;100514.56;;;17.06;72.14
20889;BME280;10604;51.976;7.594;2023-05-15T04:49:42;100516.50;;;17.04;71.82
20889;BME280;10604;51.976;7.594;2023-05-15T04:52:07;100521.25;;;17.13;71.51
20889;BME280;10604;51.976;7.594;2023-05-15T04:54:32;100522.59;;;17.20;71.24
20889;BME280;10604;51.976;7.594;2023-05-15T04:56:58;100520.38;;;17.12;71.17
20889;BME280;10604;51.976;7.594;2023-05-15T04:59:23;100512.91;;;17.33;70.96
20889;BME280;10604;51.976;7.594;2023-05-15T05:01:50;100516.31;;;17.49;70.09
20889;BME280;10604;51.976;7.594;2023-05-15T05:04:15;100514.25;;;17.54;69.81
20889;BME280;10604;51.976;7.594;2023-05-15T05:06:44;100516.34;;;17.64;69.25
20889;BME280;10604;51.976;7.594;2023-05-15T05:09:09;100518.81;;;17.52;69.61
20889;BME280;10604;51.976;7.594;2023-05-15T05:11:35;100519.59;;;17.40;69.52
20889;BME280;10604;51.976;7.594;2023-05-15T05:14:00;100523.38;;;17.36;69.90
20889;BME280;10604;51.976;7.594;2023-05-15T05:16:25;100527.94;;;17.48;69.91
20889;BME280;10604;51.976;7.594;2023-05-15T05:18:51;100525.38;;;17.47;70.18
20889;BME280;10604;51.976;7.594;2023-05-15T05:21:16;100535.28;;;17.31;70.77
20889;BME280;10604;51.976;7.594;2023-05-15T05:23:42;100525.25;;;17.34;70.57
20889;BME280;10604;51.976;7.594;2023-05-15T05:26:07;100525.75;;;17.41;70.30
20889;BME280;10604;51.976;7.594;2023-05-15T05:28:32;100532.34;;;17.64;70.03
20889;BME280;10604;51.976;7.594;2023-05-15T05:30:58;100533.69;;;17.71;69.66
20889;BME280;10604;51.976;7.594;2023-05-15T05:33:23;100535.22;;;17.75;69.69
20889;BME280;10604;51.976;7.594;2023-05-15T05:35:48;100535.00;;;17.78;69.65
20889;BME280;10604;51.976;7.594;2023-05-15T05:38:15;100532.53;;;17.60;69.87
20889;BME280;10604;51.976;7.594;2023-05-15T05:40:41;100530.72;;;17.47;69.96
20889;BME280;10604;51.976;7.594;2023-05-15T05:43:07;100528.53;;;17.39;70.25
20889;BME280;10604;51.976;7.594;2023-05-15T05:45:32;100536.41;;;17.41;70.26
20889;BME280;10604;51.976;7.594;2023-05-15T05:47:57;100534.06;;;17.65;69.21
20889;BME280;10604;51.976;7.594;2023-05-15T05:50:23;100547.41;;;17.65;70.12
20889;BME280;10604;51.976;7.594;2023-05-15T05:52:49;100541.06;;;17.23;70.06
20889;BME280;10604;51.976;7.594;2023-05-15T05:55:14;100544.66;;;17.08;71.23
20889;BME280;10604;51.976;7.594;2023-05-15T05:57:40;100539.56;;;17.19;70.66
20889;BME280;10604;51.976;7.594;2023-05-15T06:00:07;100544.88;;;17.19;71.08
20889;BME280;10604;51.976;7.594;2023-05-15T06:02:38;100535.72;;;17.09;71.25
20889;BME280;10604;51.976;7.594;2023-05-15T06:05:04;100540.88;;;17.12;70.99
20889;BME280;10604;51.976;7.594;2023-05-15T06:07:30;100536.00;;;16.74;71.89
20889;BME280;10604;51.976;7.594;2023-05-15T06:09:56;100531.72;;;17.02;71.36
20889;BME280;10604;51.976;7.594;2023-05-15T06:12:21;100532.50;;;17.18;70.64
20889;BME280;10604;51.976;7.594;2023-05-15T06:14:47;100535.56;;;17.26;70.87
20889;BME280;10604;51.976;7.594;2023-05-15T06:17:12;100553.09;;;17.44;70.29
20889;BME280;10604;51.976;7.594;2023-05-15T06:19:37;100544.25;;;17.58;69.81
20889;BME280;10604;51.976;7.594;2023-05-15T06:22:03;100543.63;;;17.69;69.65
20889;BME280;10604;51.976;7.594;2023-05-15T06:24:28;100548.84;;;17.70;69.81
20889;BME280;10604;51.976;7.594;2023-05-15T06:26:54;100557.13;;;17.94;68.85
20889;BME280;10604;51.976;7.594;2023-05-15T06:29:20;100556.69;;;18.14;68.08
20889;BME280;10604;51.976;7.594;2023-05-15T06:31:45;100570.34;;;18.51;66.61
20889;BME280;10604;51.976;7.594;2023-05-15T06:34:10;100568.56;;;17.82;68.12
20889;BME280;10604;51.976;7.594;2023-05-15T06:36:36;100566.75;;;17.96;68.00
20889;BME280;10604;51.976;7.594;2023-05-15T06:39:01;100558.28;;;17.76;68.87
20889;BME280;10604;51.976;7.594;2023-05-15T06:41:27;100569.31;;;17.70;68.92
20889;BME280;10604;51.976;7.594;2023-05-15T06:43:52;100554.84;;;17.74;69.69
20889;BME280;10604;51.976;7.594;2023-05-15T06:46:19;100564.69;;;18.14;68.94
20889;BME280;10604;51.976;7.594;2023-05-15T06:48:46;100566.75;;;18.37;67.90
20889;BME280;10604;51.976;7.594;2023-05-15T06:51:11;100558.78;;;18.23;68.34
20889;BME280;10604;51.976;7.594;2023-05-15T06:53:37;100559.56;;;18.25;67.92
20889;BME280;10604;51.976;7.594;2023-05-15T06:56:02;100581.47;;;18.30;68.21
20889;BME280;10604;51.976;7.594;2023-05-15T06:58:27;100573.09;;;18.22;68.81
20889;BME280;10604;51.976;7.594;2023-05-15T07:00:53;100571.38;;;18.21;67.74
20889;BME280;10604;51.976;7.594;2023-05-15T07:05:54;100571.50;;;18.47;67.51
20889;BME280;10604;51.976;7.594;2023-05-15T07:08:19;100569.72;;;18.74;66.82
20889;BME280;10604;51.976;7.594;2023-05-15T07:10:45;100569.16;;;19.08;66.91
20889;BME280;10604;51.976;7.594;2023-05-15T07:13:10;100572.59;;;19.36;65.00
20889;BME280;10604;51.976;7.594;2023-05-15T07:15:36;100575.00;;;19.53;64.01
20889;BME280;10604;51.976;7.594;2023-05-15T07:18:03;100567.69;;;19.30;64.36
20889;BME280;10604;51.976;7.594;2023-05-15T07:20:28;100564.56;;;19.36;64.54
20889;BME280;10604;51.976;7.594;2023-05-15T07:22:54;100578.84;;;19.49;64.21
20889;BME280;10604;51.976;7.594;2023-05-15T07:25:19;100571.75;;;19.86;63.47
20889;BME280;10604;51.976;7.594;2023-05-15T07:27:44;100583.88;;;20.28;62.61
20889;BME280;10604;51.976;7.594;2023-05-15T07:30:10;100576.25;;;19.85;61.77
20889;BME280;10604;51.976;7.594;2023-05-15T07:32:36;100570.19;;;20.20;61.28
20889;BME280;10604;51.976;7.594;2023-05-15T07:35:01;100572.94;;;20.31;61.81
20889;BME280;10604;51.976;7.594;2023-05-15T07:37:28;100575.66;;;20.55;61.21
20889;BME280;10604;51.976;7.594;2023-05-15T07:39:54;100567.06;;;20.62;60.10
20889;BME280;10604;51.976;7.594;2023-05-15T07:42:20;100564.94;;;19.82;61.35
20889;BME280;10604;51.976;7.594;2023-05-15T07:44:45;100568.34;;;19.71;61.79
20889;BME280;10604;51.976;7.594;2023-05-15T07:47:11;100587.41;;;19.67;62.51
20889;BME280;10604;51.976;7.594;2023-05-15T07:49:36;100585.91;;;19.50;63.49
20889;BME280;10604;51.976;7.594;2023-05-15T07:52:02;100579.00;;;19.33;63.91
20889;BME280;10604;51.976;7.594;2023-05-15T07:54:27;100580.28;;;19.28;64.31
20889;BME280;10604;51.976;7.594;2023-05-15T07:56:54;100573.22;;;19.27;64.43
20889;BME280;10604;51.976;7.594;2023-05-15T07:59:19;100571.94;;;19.20;64.62
20889;BME280;10604;51.976;7.594;2023-05-15T08:01:45;100573.50;;;19.49;64.07
20889;BME280;10604;51.976;7.594;2023-05-15T08:04:10;100567.06;;;19.39;63.68
20889;BME280;10604;51.976;7.594;2023-05-15T08:06:36;100568.84;;;19.26;64.43
20889;BME280;10604;51.976;7.594;2023-05-15T08:09:03;100579.50;;;19.65;63.52
20889;BME280;10604;51.976;7.594;2023-05-15T08:11:28;100570.69;;;19.63;62.89
20889;BME280;10604;51.976;7.594;2023-05-15T08:13:53;100572.16;;;19.42;63.54
20889;BME280;10604;51.976;7.594;2023-05-15T08:16:19;100561.56;;;19.40;63.93
20889;BME280;10604;51.976;7.594;2023-05-15T08:18:44;100557.56;;;19.60;63.40
20889;BME280;10604;51.976;7.594;2023-05-15T08:21:10;100557.06;;;19.41;63.80
20889;BME280;10604;51.976;7.594;2023-05-15T08:23:35;100550.88;;;19.40;63.96
20889;BME280;10604;51.976;7.594;2023-05-15T08:26:00;100552.50;;;19.81;62.36
20889;BME280;10604;51.976;7.594;2023-05-15T08:28:26;100556.25;;;19.78;62.72
20889;BME280;10604;51.976;7.594;2023-05-15T08:30:51;100561.84;;;20.12;61.60
20889;BME280;10604;51.976;7.594;2023-05-15T08:33:17;100559.75;;;20.64;60.40
20889;BME280;10604;51.976;7.594;2023-05-15T08:35:42;100562.53;;;20.87;59.21
20889;BME280;10604;51.976;7.594;2023-05-15T08:38:07;100560.75;;;21.22;58.57
20889;BME280;10604;51.976;7.594;2023-05-15T08:40:33;100567.38;;;21.52;57.38
20889;BME280;10604;51.976;7.594;2023-05-15T08:43:02;100559.06;;;21.43;57.64
20889;BME280;10604;51.976;7.594;2023-05-15T08:45:30;100559.56;;;21.48;57.48
20889;BME280;10604;51.976;7.594;2023-05-15T08:47:57;100557.03;;;21.58;56.04
20889;BME280;10604;51.976;7.594;2023-05-15T08:50:23;100561.53;;;22.13;55.02
20889;BME280;10604;51.976;7.594;2023-05-15T08:52:50;100549.50;;;22.40;53.81
20889;BME280;10604;51.976;7.594;2023-05-15T08:55:17;100560.59;;;22.46;54.25
20889;BME280;10604;51.976;7.594;2023-05-15T08:57:43;100568.84;;;21.78;54.06
20889;BME280;10604;51.976;7.594;2023-05-15T09:00:10;100564.47;;;22.10;55.05
20889;BME280;10604;51.976;7.594;2023-05-15T09:02:40;100554.06;;;22.71;53.15
20889;BME280;10604;51.976;7.594;2023-05-15T09:05:07;100558.66;;;22.91;52.15
20889;BME280;10604;51.976;7.594;2023-05-15T09:07:33;100553.81;;;23.27;51.38
20889;BME280;10604;51.976;7.594;2023-05-15T09:10:00;100559.09;;;22.96;51.33
20889;BME280;10604;51.976;7.594;2023-05-15T09:12:26;100557.91;;;22.57;51.96
20889;BME280;10604;51.976;7.594;2023-05-15T09:15:07;100567.13;;;22.44;52.62
20889;BME280;10604;51.976;7.594;2023-05-15T09:17:33;100571.63;;;22.43;51.91
20889;BME280;10604;51.976;7.594;2023-05-15T09:19:58;100563.88;;;22.61;52.83
20889;BME280;10604;51.976;7.594;2023-05-15T09:22:23;100569.31;;;22.39;52.96
20889;BME280;10604;51.976;7.594;2023-05-15T09:24:51;100571.97;;;22.50;52.23
20889;BME280;10604;51.976;7.594;2023-05-15T09:27:22;100575.00;;;22.02;52.48
20889;BME280;10604;51.976;7.594;2023-05-15T09:29:48;100574.72;;;22.27;52.79
20889;BME280;10604;51.976;7.594;2023-05-15T09:32:18;100575.59;;;22.71;51.90
20889;BME280;10604;51.976;7.594;2023-05-15T09:34:44;100572.66;;;23.68;50.00
20889;BME280;10604;51.976;7.594;2023-05-15T09:37:26;100560.47;;;23.74;47.96
20889;BME280;10604;51.976;7.594;2023-05-15T09:39:52;100563.81;;;22.83;49.67
20889;BME280;10604;51.976;7.594;2023-05-15T09:42:17;100562.09;;;23.14;51.13
20889;BME280;10604;51.976;7.594;2023-05-15T09:44:44;100569.94;;;23.99;49.63
20889;BME280;10604;51.976;7.594;2023-05-15T09:47:11;100563.13;;;23.95;47.92
20889;BME280;10604;51.976;7.594;2023-05-15T09:49:36;100560.16;;;24.28;47.94
20889;BME280;10604;51.976;7.594;2023-05-15T09:52:02;100567.59;;;24.65;47.74
20889;BME280;10604;51.976;7.594;2023-05-15T09:54:27;100561.63;;;25.28;46.58
20889;BME280;10604;51.976;7.594;2023-05-15T09:56:56;100557.94;;;25.10;45.75
20889;BME280;10604;51.976;7.594;2023-05-15T09:59:31;100571.19;;;24.25;46.77
20889;BME280;10604;51.976;7.594;2023-05-15T10:01:56;100564.22;;;25.20;45.46
20889;BME280;10604;51.976;7.594;2023-05-15T10:04:21;100560.22;;;24.86;46.38
20889;BME280;10604;51.976;7.594;2023-05-15T10:06:47;100572.00;;;25.23;45.97
20889;BME280;10604;51.976;7.594;2023-05-15T10:09:14;100577.03;;;26.11;43.78
20889;BME280;10604;51.976;7.594;2023-05-15T10:11:45;100571.50;;;25.76;42.56
20889;BME280;10604;51.976;7.594;2023-05-15T10:14:14;100575.22;;;25.56;43.60
20889;BME280;10604;51.976;7.594;2023-05-15T10:16:41;100580.63;;;26.02;42.32
20889;BME280;10604;51.976;7.594;2023-05-15T10:19:08;100569.78;;;25.75;42.40
20889;BME280;10604;51.976;7.594;2023-05-15T10:21:36;100567.91;;;25.19;44.33
20889;BME280;10604;51.976;7.594;2023-05-15T10:24:02;100564.75;;;25.33;44.79
20889;BME280;10604;51.976;7.594;2023-05-15T10:26:32;100562.78;;;24.78;45.50
20889;BME280;10604;51.976;7.594;2023-05-15T10:28:59;100563.91;;;25.33;45.07
20889;BME280;10604;51.976;7.594;2023-05-15T10:31:25;100564.97;;;25.69;44.08
20889;BME280;10604;51.976;7.594;2023-05-15T10:33:51;100557.38;;;25.35;43.84
20889;BME280;10604;51.976;7.594;2023-05-15T10:36:18;100563.66;;;26.37;43.79
20889;BME280;10604;51.976;7.594;2023-05-15T10:38:45;100555.91;;;26.87;41.40
20889;BME280;10604;51.976;7.594;2023-05-15T10:41:11;100549.66;;;27.05;41.86
20889;BME280;10604;51.976;7.594;2023-05-15T10:43:39;100551.09;;;27.60;40.43
20889;BME280;10604;51.976;7.594;2023-05-15T10:46:06;100558.38;;;27.94;40.26
20889;BME280;10604;51.976;7.594;2023-05-15T10:48:32;100543.59;;;26.75;41.00
20889;BME280;10604;51.976;7.594;2023-05-15T10:51:01;100543.03;;;27.25;41.42
20889;BME280;10604;51.976;7.594;2023-05-15T10:53:26;100549.44;;;28.43;40.66
20889;BME280;10604;51.976;7.594;2023-05-15T10:55:52;100542.16;;;28.52;38.35
20889;BME280;10604;51.976;7.594;2023-05-15T10:58:22;100548.00;;;29.14;37.30
20889;BME280;10604;51.976;7.594;2023-05-15T11:00:47;100550.75;;;28.90;36.84
20889;BME280;10604;51.976;7.594;2023-05-15T11:03:13;100544.13;;;29.08;37.43
20889;BME280;10604;51.976;7.594;2023-05-15T11:06:10;100547.50;;;27.86;37.68
20889;BME280;10604;51.976;7.594;2023-05-15T11:08:38;100537.25;;;27.72;38.69
20889;BME280;10604;51.976;7.594;2023-05-15T11:11:04;100543.09;;;27.85;37.80
20889;BME280;10604;51.976;7.594;2023-05-15T11:27:16;100525.13;;;28.84;36.96
20889;BME280;10604;51.976;7.594;2023-05-15T11:37:49;100515.44;;;29.85;34.87
20889;BME280;10604;51.976;7.594;2023-05-15T11:40:25;100515.94;;;30.28;34.81
20889;BME280;10604;51.976;7.594;2023-05-15T11:45:50;100504.34;;;30.03;34.65
20889;BME280;10604;51.976;7.594;2023-05-15T11:48:22;100506.66;;;30.45;33.57
20889;BME280;10604;51.976;7.594;2023-05-15T11:50:47;100504.19;;;29.96;33.37
20889;BME280;10604;51.976;7.594;2023-05-15T11:53:14;100500.75;;;30.64;33.51
20889;BME280;10604;51.976;7.594;2023-05-15T11:55:42;100505.41;;;29.86;34.29
20889;BME280;10604;51.976;7.594;2023-05-15T11:58:16;100493.97;;;29.98;34.36
20889;BME280;10604;51.976;7.594;2023-05-15T12:00:44;100490.75;;;29.48;34.64
20889;BME280;10604;51.976;7.594;2023-05-15T12:03:32;100492.31;;;30.20;33.91
20889;BME280;10604;51.976;7.594;2023-05-15T12:05:57;100483.81;;;30.54;34.11
20889;BME280;10604;51.976;7.594;2023-05-15T12:08:29;100470.28;;;30.84;33.12
20889;BME280;10604;51.976;7.594;2023-05-15T12:10:57;100482.03;;;31.07;32.60
20889;BME280;10604;51.976;7.594;2023-05-15T12:13:23;100481.78;;;30.94;33.23
20889;BME280;10604;51.976;7.594;2023-05-15T12:15:48;100478.31;;;31.00;32.51
20889;BME280;10604;51.976;7.594;2023-05-15T12:18:14;100472.53;;;32.20;31.02
20889;BME280;10604;51.976;7.594;2023-05-15T12:20:40;100469.09;;;31.97;31.84
20889;BME280;10604;51.976;7.594;2023-05-15T12:23:16;100464.19;;;30.59;33.11
20889;BME280;10604;51.976;7.594;2023-05-15T12:25:42;100463.03;;;31.13;31.44
20889;BME280;10604;51.976;7.594;2023-05-15T12:28:08;100459.66;;;31.41;29.69
20889;BME280;10604;51.976;7.594;2023-05-15T12:30:35;100458.56;;;32.30;29.82
20889;BME280;10604;51.976;7.594;2023-05-15T12:33:03;100466.69;;;32.23;29.82
20889;BME280;10604;51.976;7.594;2023-05-15T12:35:31;100466.56;;;31.51;29.36
20889;BME280;10604;51.976;7.594;2023-05-15T12:37:58;100467.34;;;32.11;28.93
20889;BME280;10604;51.976;7.594;2023-05-15T12:40:24;100449.44;;;31.28;29.31
20889;BME280;10604;51.976;7.594;2023-05-15T12:42:53;100449.72;;;32.13;29.60
20889;BME280;10604;51.976;7.594;2023-05-15T12:45:20;100460.63;;;32.92;28.03
20889;BME280;10604;51.976;7.594;2023-05-15T12:47:47;100454.06;;;32.65;26.57
20889;BME280;10604;51.976;7.594;2023-05-15T12:50:18;100448.66;;;31.93;27.38
20889;BME280;10604;51.976;7.594;2023-05-15T12:55:16;100455.44;;;31.97;27.50
20889;BME280;10604;51.976;7.594;2023-05-15T12:57:42;100446.69;;;32.80;26.49
20889;BME280;10604;51.976;7.594;2023-05-15T13:00:09;100447.50;;;33.30;25.46
20889;BME280;10604;51.976;7.594;2023-05-15T13:02:35;100455.88;;;34.04;25.01
20889;BME280;10604;51.976;7.594;2023-05-15T13:05:02;100443.13;;;31.42;26.40
20889;BME280;10604;51.976;7.594;2023-05-15T13:07:28;100437.38;;;30.48;27.79
20889;BME280;10604;51.976;7.594;2023-05-15T13:10:07;100440.84;;;29.08;30.39
20889;BME280;10604;51.976;7.594;2023-05-15T13:12:42;100443.31;;;27.96;29.39
20889;BME280;10604;51.976;7.594;2023-05-15T13:18:01;100440.25;;;27.23;31.44
20889;BME280;10604;51.976;7.594;2023-05-15T13:20:28;100449.75;;;27.27;29.88
20889;BME280;10604;51.976;7.594;2023-05-15T13:22:54;100444.81;;;28.98;28.60
20889;BME280;10604;51.976;7.594;2023-05-15T13:25:20;100445.88;;;30.22;27.69
20889;BME280;10604;51.976;7.594;2023-05-15T13:27:46;100436.31;;;30.71;28.46
20889;BME280;10604;51.976;7.594;2023-05-15T13:30:13;100442.28;;;31.86;27.15
20889;BME280;10604;51.976;7.594;2023-05-15T13:32:38;100432.13;;;31.21;26.46
20889;BME280;10604;51.976;7.594;2023-05-15T13:35:04;100439.88;;;31.62;26.35